sensor_id;sensor_type;location;lat;lon;timestamp;temperature;humidity
1179;DHT22;578;48.408;10.004;2022-09-06T00:01:21;13.80;99.90
1179;DHT22;578;48.408;10.004;2022-09-06T00:03:49;13.70;99.90
1179;DHT22;578;48.408;10.004;2022-09-06T00:06:17;13.60;99.90
1179;DHT22;578;48.408;10.004;2022-09-06T00:08:45;13.50;99.90
1179;DHT22;578;48.408;10.004;2022-09-06T00:11:14;13.50;99.90
1179;DHT22;578;48.408;10.004;2022-09-06T00:13:41;13.40;99.90
1179;DHT22;578;48.408;10.004;2022-09-06T00:16:10;13.40;99.90
1179;DHT22;578;48.408;10.004;2022-09-06T00:18:37;13.40;99.90
1179;DHT22;578;48.408;10.004;2022-09-06T00:21:13;13.40;99.90
1179;DHT22;578;48.408;10.004;2022-09-06T00:23:40;13.40;99.90
1179;DHT22;578;48.408;10.004;2022-09-06T00:26:06;13.40;99.90
1179;DHT22;578;48.408;10.004;2022-09-06T00:28:34;13.40;99.90
1179;DHT22;578;48.408;10.004;2022-09-06T00:31:07;13.40;99.90
1179;DHT22;578;48.408;10.004;2022-09-06T00:33:34;13.30;99.90
1179;DHT22;578;48.408;10.004;2022-09-06T00:36:01;13.30;99.90
1179;DHT22;578;48.408;10.004;2022-09-06T00:38:28;13.20;99.90
1179;DHT22;578;48.408;10.004;2022-09-06T00:40:55;13.20;99.90
1179;DHT22;578;48.408;10.004;2022-09-06T00:43:22;13.20;99.90
1179;DHT22;578;48.408;10.004;2022-09-06T00:45:51;13.20;99.90
1179;DHT22;578;48.408;10.004;2022-09-06T00:48:20;13.20;99.90
1179;DHT22;578;48.408;10.004;2022-09-06T00:50:49;13.20;99.90
1179;DHT22;578;48.408;10.004;2022-09-06T00:53:18;13.10;99.90
1179;DHT22;578;48.408;10.004;2022-09-06T00:55:45;13.10;99.90
1179;DHT22;578;48.408;10.004;2022-09-06T00:58:13;13.10;99.90
1179;DHT22;578;48.408;10.004;2022-09-06T01:00:40;13.10;99.90
1179;DHT22;578;48.408;10.004;2022-09-06T01:03:09;13.10;99.90
1179;DHT22;578;48.408;10.004;2022-09-06T01:05:43;13.00;99.90
1179;DHT22;578;48.408;10.004;2022-09-06T01:08:19;13.00;99.90
1179;DHT22;578;48.408;10.004;2022-09-06T01:11:03;13.00;99.90
1179;DHT22;578;48.408;10.004;2022-09-06T01:13:41;13.00;99.90
1179;DHT22;578;48.408;10.004;2022-09-06T01:16:26;13.00;99.90
1179;DHT22;578;48.408;10.004;2022-09-06T01:19:28;13.00;99.90
1179;DHT22;578;48.408;10.004;2022-09-06T01:22:07;13.00;99.90
1179;DHT22;578;48.408;10.004;2022-09-06T01:24:57;13.00;99.90
1179;DHT22;578;48.408;10.004;2022-09-06T01:28:00;13.00;99.90
1179;DHT22;578;48.408;10.004;2022-09-06T01:30:35;13.00;99.90
1179;DHT22;578;48.408;10.004;2022-09-06T01:33:09;12.90;99.90
1179;DHT22;578;48.408;10.004;2022-09-06T01:35:41;12.90;99.90
1179;DHT22;578;48.408;10.004;2022-09-06T01:38:10;12.90;99.90
1179;DHT22;578;48.408;10.004;2022-09-06T01:40:36;12.90;99.90
1179;DHT22;578;48.408;10.004;2022-09-06T01:43:07;12.90;99.90
1179;DHT22;578;48.408;10.004;2022-09-06T01:45:40;12.90;99.90
1179;DHT22;578;48.408;10.004;2022-09-06T01:48:16;12.90;99.90
1179;DHT22;578;48.408;10.004;2022-09-06T01:51:07;12.80;99.90
1179;DHT22;578;48.408;10.004;2022-09-06T01:53:49;12.80;99.90
1179;DHT22;578;48.408;10.004;2022-09-06T01:56:24;12.80;99.90
1179;DHT22;578;48.408;10.004;2022-09-06T01:59:05;12.80;99.90
1179;DHT22;578;48.408;10.004;2022-09-06T02:01:37;12.70;99.90
1179;DHT22;578;48.408;10.004;2022-09-06T02:04:13;12.70;99.90
1179;DHT22;578;48.408;10.004;2022-09-06T02:06:48;12.70;99.90
1179;DHT22;578;48.408;10.004;2022-09-06T02:09:18;12.70;99.90
1179;DHT22;578;48.408;10.004;2022-09-06T02:11:48;12.70;99.90
1179;DHT22;578;48.408;10.004;2022-09-06T02:14:21;12.70;99.90
1179;DHT22;578;48.408;10.004;2022-09-06T02:16:50;12.70;99.90
1179;DHT22;578;48.408;10.004;2022-09-06T02:19:21;12.70;99.90
1179;DHT22;578;48.408;10.004;2022-09-06T02:21:51;12.70;99.90
1179;DHT22;578;48.408;10.004;2022-09-06T02:24:22;12.70;99.90
1179;DHT22;578;48.408;10.004;2022-09-06T02:26:51;12.80;99.90
1179;DHT22;578;48.408;10.004;2022-09-06T02:29:19;12.80;99.90
1179;DHT22;578;48.408;10.004;2022-09-06T02:31:49;12.70;99.90
1179;DHT22;578;48.408;10.004;2022-09-06T02:34:19;12.70;99.90
1179;DHT22;578;48.408;10.004;2022-09-06T02:36:46;12.70;99.90
1179;DHT22;578;48.408;10.004;2022-09-06T02:39:13;12.70;99.90
1179;DHT22;578;48.408;10.004;2022-09-06T02:41:41;12.70;99.90
1179;DHT22;578;48.408;10.004;2022-09-06T02:44:09;12.70;99.90
1179;DHT22;578;48.408;10.004;2022-09-06T02:46:37;12.70;99.90
1179;DHT22;578;48.408;10.004;2022-09-06T02:49:03;12.70;99.90
1179;DHT22;578;48.408;10.004;2022-09-06T02:51:35;12.70;99.90
1179;DHT22;578;48.408;10.004;2022-09-06T02:54:02;12.70;99.90
1179;DHT22;578;48.408;10.004;2022-09-06T02:56:29;12.70;99.90
1179;DHT22;578;48.408;10.004;2022-09-06T02:58:58;12.70;99.90
1179;DHT22;578;48.408;10.004;2022-09-06T03:01:25;12.70;99.90
1179;DHT22;578;48.408;10.004;2022-09-06T03:03:53;12.70;99.90
1179;DHT22;578;48.408;10.004;2022-09-06T03:06:20;12.70;99.90
1179;DHT22;578;48.408;10.004;2022-09-06T03:08:47;12.70;99.90
1179;DHT22;578;48.408;10.004;2022-09-06T03:11:14;12.70;99.90
1179;DHT22;578;48.408;10.004;2022-09-06T03:13:40;12.70;99.90
1179;DHT22;578;48.408;10.004;2022-09-06T03:16:07;12.70;99.90
1179;DHT22;578;48.408;10.004;2022-09-06T03:18:34;12.60;99.90
1179;DHT22;578;48.408;10.004;2022-09-06T03:21:02;12.60;99.90
1179;DHT22;578;48.408;10.004;2022-09-06T03:23:30;12.60;99.90
1179;DHT22;578;48.408;10.004;2022-09-06T03:25:56;12.50;99.90
1179;DHT22;578;48.408;10.004;2022-09-06T03:28:23;12.50;99.90
1179;DHT22;578;48.408;10.004;2022-09-06T03:30:51;12.50;99.90
1179;DHT22;578;48.408;10.004;2022-09-06T03:33:18;12.50;99.90
1179;DHT22;578;48.408;10.004;2022-09-06T03:35:49;12.50;99.90
1179;DHT22;578;48.408;10.004;2022-09-06T03:38:18;12.50;99.90
1179;DHT22;578;48.408;10.004;2022-09-06T03:40:46;12.40;99.90
1179;DHT22;578;48.408;10.004;2022-09-06T03:43:13;12.50;99.90
1179;DHT22;578;48.408;10.004;2022-09-06T03:45:44;12.50;99.90
1179;DHT22;578;48.408;10.004;2022-09-06T03:48:12;12.50;99.90
1179;DHT22;578;48.408;10.004;2022-09-06T03:50:43;12.50;99.90
1179;DHT22;578;48.408;10.004;2022-09-06T03:53:10;12.50;99.90
1179;DHT22;578;48.408;10.004;2022-09-06T03:55:38;12.40;99.90
1179;DHT22;578;48.408;10.004;2022-09-06T03:58:04;12.50;99.90
1179;DHT22;578;48.408;10.004;2022-09-06T04:00:31;12.50;99.90
1179;DHT22;578;48.408;10.004;2022-09-06T04:02:58;12.50;99.90
1179;DHT22;578;48.408;10.004;2022-09-06T04:05:25;12.50;99.90
1179;DHT22;578;48.408;10.004;2022-09-06T04:07:51;12.60;99.90
1179;DHT22;578;48.408;10.004;2022-09-06T04:10:18;12.70;99.90
1179;DHT22;578;48.408;10.004;2022-09-06T04:12:46;12.80;99.90
1179;DHT22;578;48.408;10.004;2022-09-06T04:15:13;13.00;99.90
1179;DHT22;578;48.408;10.004;2022-09-06T04:17:42;13.00;99.90
1179;DHT22;578;48.408;10.004;2022-09-06T04:20:10;13.10;99.90
1179;DHT22;578;48.408;10.004;2022-09-06T04:22:37;13.20;99.90
1179;DHT22;578;48.408;10.004;2022-09-06T04:25:05;13.30;99.90
1179;DHT22;578;48.408;10.004;2022-09-06T04:27:32;13.20;99.90
1179;DHT22;578;48.408;10.004;2022-09-06T04:30:00;13.20;99.90
1179;DHT22;578;48.408;10.004;2022-09-06T04:32:27;13.20;99.90
1179;DHT22;578;48.408;10.004;2022-09-06T04:34:54;13.40;99.90
1179;DHT22;578;48.408;10.004;2022-09-06T04:37:20;13.60;99.90
1179;DHT22;578;48.408;10.004;2022-09-06T04:39:47;13.80;99.90
1179;DHT22;578;48.408;10.004;2022-09-06T04:42:14;13.90;99.90
1179;DHT22;578;48.408;10.004;2022-09-06T04:44:41;14.00;99.90
1179;DHT22;578;48.408;10.004;2022-09-06T04:47:12;14.00;99.90
1179;DHT22;578;48.408;10.004;2022-09-06T04:49:39;14.10;99.90
1179;DHT22;578;48.408;10.004;2022-09-06T04:52:06;14.20;99.90
1179;DHT22;578;48.408;10.004;2022-09-06T04:54:33;14.10;99.90
1179;DHT22;578;48.408;10.004;2022-09-06T04:57:00;14.10;99.90
1179;DHT22;578;48.408;10.004;2022-09-06T04:59:26;14.10;99.90
1179;DHT22;578;48.408;10.004;2022-09-06T05:01:53;14.00;99.90
1179;DHT22;578;48.408;10.004;2022-09-06T05:04:22;13.90;99.90
1179;DHT22;578;48.408;10.004;2022-09-06T05:06:48;13.90;99.90
1179;DHT22;578;48.408;10.004;2022-09-06T05:09:15;13.90;99.90
1179;DHT22;578;48.408;10.004;2022-09-06T05:11:42;13.80;99.90
1179;DHT22;578;48.408;10.004;2022-09-06T05:14:08;13.80;99.90
1179;DHT22;578;48.408;10.004;2022-09-06T05:16:35;13.90;99.90
1179;DHT22;578;48.408;10.004;2022-09-06T05:19:01;14.00;99.90
1179;DHT22;578;48.408;10.004;2022-09-06T05:21:29;14.10;99.90
1179;DHT22;578;48.408;10.004;2022-09-06T05:23:56;14.10;99.90
1179;DHT22;578;48.408;10.004;2022-09-06T05:26:23;14.20;99.90
1179;DHT22;578;48.408;10.004;2022-09-06T05:28:49;14.30;99.90
1179;DHT22;578;48.408;10.004;2022-09-06T05:31:24;14.30;99.90
1179;DHT22;578;48.408;10.004;2022-09-06T05:33:52;14.30;99.90
1179;DHT22;578;48.408;10.004;2022-09-06T05:36:19;14.40;99.90
1179;DHT22;578;48.408;10.004;2022-09-06T05:38:49;14.50;99.90
1179;DHT22;578;48.408;10.004;2022-09-06T05:41:16;14.50;99.90
1179;DHT22;578;48.408;10.004;2022-09-06T05:43:42;14.70;99.90
1179;DHT22;578;48.408;10.004;2022-09-06T05:46:09;14.80;99.90
1179;DHT22;578;48.408;10.004;2022-09-06T05:48:36;15.00;99.90
1179;DHT22;578;48.408;10.004;2022-09-06T05:51:04;15.10;99.90
1179;DHT22;578;48.408;10.004;2022-09-06T05:53:35;15.10;99.90
1179;DHT22;578;48.408;10.004;2022-09-06T05:56:05;15.30;99.90
1179;DHT22;578;48.408;10.004;2022-09-06T05:58:31;15.40;99.90
1179;DHT22;578;48.408;10.004;2022-09-06T06:01:04;15.40;99.90
1179;DHT22;578;48.408;10.004;2022-09-06T06:03:31;15.50;99.90
1179;DHT22;578;48.408;10.004;2022-09-06T06:05:58;15.60;99.90
1179;DHT22;578;48.408;10.004;2022-09-06T06:08:24;15.50;99.90
1179;DHT22;578;48.408;10.004;2022-09-06T06:10:51;15.60;99.90
1179;DHT22;578;48.408;10.004;2022-09-06T06:13:19;15.60;99.90
1179;DHT22;578;48.408;10.004;2022-09-06T06:15:46;15.70;99.90
1179;DHT22;578;48.408;10.004;2022-09-06T06:18:12;15.70;99.90
1179;DHT22;578;48.408;10.004;2022-09-06T06:20:39;16.00;99.90
1179;DHT22;578;48.408;10.004;2022-09-06T06:23:06;16.40;99.90
1179;DHT22;578;48.408;10.004;2022-09-06T06:25:32;17.00;99.90
1179;DHT22;578;48.408;10.004;2022-09-06T06:27:59;17.50;99.90
1179;DHT22;578;48.408;10.004;2022-09-06T06:30:27;17.70;99.90
1179;DHT22;578;48.408;10.004;2022-09-06T06:32:54;17.70;99.90
1179;DHT22;578;48.408;10.004;2022-09-06T06:35:22;17.90;99.90
1179;DHT22;578;48.408;10.004;2022-09-06T06:37:49;18.30;99.90
1179;DHT22;578;48.408;10.004;2022-09-06T06:40:16;18.20;99.90
1179;DHT22;578;48.408;10.004;2022-09-06T06:42:43;18.10;99.90
1179;DHT22;578;48.408;10.004;2022-09-06T06:45:10;18.30;99.90
1179;DHT22;578;48.408;10.004;2022-09-06T06:47:38;18.30;99.90
1179;DHT22;578;48.408;10.004;2022-09-06T06:50:05;18.60;99.90
1179;DHT22;578;48.408;10.004;2022-09-06T06:52:32;18.70;99.90
1179;DHT22;578;48.408;10.004;2022-09-06T06:54:59;18.90;99.90
1179;DHT22;578;48.408;10.004;2022-09-06T06:57:25;19.00;99.90
1179;DHT22;578;48.408;10.004;2022-09-06T06:59:52;19.00;99.90
1179;DHT22;578;48.408;10.004;2022-09-06T07:02:19;19.10;99.90
1179;DHT22;578;48.408;10.004;2022-09-06T07:04:47;19.10;99.90
1179;DHT22;578;48.408;10.004;2022-09-06T07:07:13;19.20;99.90
1179;DHT22;578;48.408;10.004;2022-09-06T07:09:40;19.30;99.90
1179;DHT22;578;48.408;10.004;2022-09-06T07:12:07;19.80;99.90
1179;DHT22;578;48.408;10.004;2022-09-06T07:14:34;19.90;99.90
1179;DHT22;578;48.408;10.004;2022-09-06T07:17:01;20.70;99.90
1179;DHT22;578;48.408;10.004;2022-09-06T07:19:28;21.30;99.90
1179;DHT22;578;48.408;10.004;2022-09-06T07:21:56;21.60;99.90
1179;DHT22;578;48.408;10.004;2022-09-06T07:24:23;21.70;99.90
1179;DHT22;578;48.408;10.004;2022-09-06T07:26:49;21.60;99.90
1179;DHT22;578;48.408;10.004;2022-09-06T07:29:16;22.10;99.90
1179;DHT22;578;48.408;10.004;2022-09-06T07:31:43;22.40;99.90
1179;DHT22;578;48.408;10.004;2022-09-06T07:34:09;22.60;99.90
1179;DHT22;578;48.408;10.004;2022-09-06T07:36:37;22.20;99.90
1179;DHT22;578;48.408;10.004;2022-09-06T07:39:05;22.10;99.90
1179;DHT22;578;48.408;10.004;2022-09-06T07:41:32;22.50;99.90
1179;DHT22;578;48.408;10.004;2022-09-06T07:43:59;23.10;99.90
1179;DHT22;578;48.408;10.004;2022-09-06T07:46:25;23.50;99.40
1179;DHT22;578;48.408;10.004;2022-09-06T07:48:52;23.50;97.80
1179;DHT22;578;48.408;10.004;2022-09-06T07:51:19;23.20;98.00
1179;DHT22;578;48.408;10.004;2022-09-06T07:53:48;23.40;99.70
1179;DHT22;578;48.408;10.004;2022-09-06T07:56:18;23.00;99.90
1179;DHT22;578;48.408;10.004;2022-09-06T07:58:46;22.70;99.90
1179;DHT22;578;48.408;10.004;2022-09-06T08:01:14;22.60;99.90
1179;DHT22;578;48.408;10.004;2022-09-06T08:03:42;22.60;99.90
1179;DHT22;578;48.408;10.004;2022-09-06T08:06:09;22.10;99.90
1179;DHT22;578;48.408;10.004;2022-09-06T08:08:36;22.20;99.90
1179;DHT22;578;48.408;10.004;2022-09-06T08:11:03;22.50;99.90
1179;DHT22;578;48.408;10.004;2022-09-06T08:13:32;22.80;99.90
1179;DHT22;578;48.408;10.004;2022-09-06T08:15:59;22.40;99.90
1179;DHT22;578;48.408;10.004;2022-09-06T08:18:26;22.60;99.90
1179;DHT22;578;48.408;10.004;2022-09-06T08:20:52;23.10;99.90
1179;DHT22;578;48.408;10.004;2022-09-06T08:23:19;23.20;97.90
1179;DHT22;578;48.408;10.004;2022-09-06T08:25:55;23.10;98.10
1179;DHT22;578;48.408;10.004;2022-09-06T08:28:22;24.00;96.30
1179;DHT22;578;48.408;10.004;2022-09-06T08:30:50;23.60;96.00
1179;DHT22;578;48.408;10.004;2022-09-06T08:33:17;23.50;95.50
1179;DHT22;578;48.408;10.004;2022-09-06T08:35:53;23.30;96.40
1179;DHT22;578;48.408;10.004;2022-09-06T08:38:20;23.10;96.50
1179;DHT22;578;48.408;10.004;2022-09-06T08:40:47;23.40;97.40
1179;DHT22;578;48.408;10.004;2022-09-06T08:43:16;23.20;95.90
1179;DHT22;578;48.408;10.004;2022-09-06T08:45:45;23.20;99.90
1179;DHT22;578;48.408;10.004;2022-09-06T08:48:14;23.50;97.10
1179;DHT22;578;48.408;10.004;2022-09-06T08:50:46;23.40;97.70
1179;DHT22;578;48.408;10.004;2022-09-06T08:53:18;23.40;95.50
1179;DHT22;578;48.408;10.004;2022-09-06T08:55:47;22.90;97.40
1179;DHT22;578;48.408;10.004;2022-09-06T08:58:31;23.40;96.30
1179;DHT22;578;48.408;10.004;2022-09-06T09:01:02;23.30;96.70
1179;DHT22;578;48.408;10.004;2022-09-06T09:03:33;22.80;96.70
1179;DHT22;578;48.408;10.004;2022-09-06T09:06:01;23.00;95.80
1179;DHT22;578;48.408;10.004;2022-09-06T09:08:35;22.70;94.80
1179;DHT22;578;48.408;10.004;2022-09-06T09:11:06;22.80;99.90
1179;DHT22;578;48.408;10.004;2022-09-06T09:13:38;22.70;99.80
1179;DHT22;578;48.408;10.004;2022-09-06T09:16:06;23.20;96.50
1179;DHT22;578;48.408;10.004;2022-09-06T09:18:36;23.70;94.40
1179;DHT22;578;48.408;10.004;2022-09-06T09:21:04;24.90;94.50
1179;DHT22;578;48.408;10.004;2022-09-06T09:23:31;24.10;97.20
1179;DHT22;578;48.408;10.004;2022-09-06T09:26:01;23.80;93.30
1179;DHT22;578;48.408;10.004;2022-09-06T09:28:28;23.60;95.20
1179;DHT22;578;48.408;10.004;2022-09-06T09:30:55;23.70;95.50
1179;DHT22;578;48.408;10.004;2022-09-06T09:33:26;23.50;95.20
1179;DHT22;578;48.408;10.004;2022-09-06T09:35:55;23.60;96.60
1179;DHT22;578;48.408;10.004;2022-09-06T09:38:23;23.50;95.20
1179;DHT22;578;48.408;10.004;2022-09-06T09:40:52;24.00;95.30
1179;DHT22;578;48.408;10.004;2022-09-06T09:43:21;24.00;94.70
1179;DHT22;578;48.408;10.004;2022-09-06T09:46:16;24.00;93.60
1179;DHT22;578;48.408;10.004;2022-09-06T09:49:00;23.70;95.80
1179;DHT22;578;48.408;10.004;2022-09-06T09:51:30;24.90;92.20
1179;DHT22;578;48.408;10.004;2022-09-06T09:53:59;25.30;92.20
1179;DHT22;578;48.408;10.004;2022-09-06T09:56:29;26.10;90.90
1179;DHT22;578;48.408;10.004;2022-09-06T09:58:58;26.60;87.40
1179;DHT22;578;48.408;10.004;2022-09-06T10:01:57;26.50;87.50
1179;DHT22;578;48.408;10.004;2022-09-06T10:04:46;26.00;88.60
1179;DHT22;578;48.408;10.004;2022-09-06T10:07:18;25.60;86.90
1179;DHT22;578;48.408;10.004;2022-09-06T10:09:47;26.00;88.10
1179;DHT22;578;48.408;10.004;2022-09-06T10:12:16;26.00;88.90
1179;DHT22;578;48.408;10.004;2022-09-06T10:14:46;25.80;88.90
1179;DHT22;578;48.408;10.004;2022-09-06T10:17:28;26.30;89.10
1179;DHT22;578;48.408;10.004;2022-09-06T10:19:59;26.60;86.20
1179;DHT22;578;48.408;10.004;2022-09-06T10:22:30;26.60;88.90
1179;DHT22;578;48.408;10.004;2022-09-06T10:28:29;26.70;86.00
1179;DHT22;578;48.408;10.004;2022-09-06T10:31:13;25.90;88.60
1179;DHT22;578;48.408;10.004;2022-09-06T10:33:57;26.30;87.70
1179;DHT22;578;48.408;10.004;2022-09-06T10:36:30;26.50;85.90
1179;DHT22;578;48.408;10.004;2022-09-06T10:39:03;25.90;87.70
1179;DHT22;578;48.408;10.004;2022-09-06T10:41:45;25.70;88.70
1179;DHT22;578;48.408;10.004;2022-09-06T10:44:26;25.70;90.70
1179;DHT22;578;48.408;10.004;2022-09-06T10:47:09;25.60;90.40
1179;DHT22;578;48.408;10.004;2022-09-06T10:49:37;25.40;90.10
1179;DHT22;578;48.408;10.004;2022-09-06T10:52:07;25.60;91.30
1179;DHT22;578;48.408;10.004;2022-09-06T10:54:39;25.90;90.60
1179;DHT22;578;48.408;10.004;2022-09-06T10:57:10;25.60;91.40
1179;DHT22;578;48.408;10.004;2022-09-06T10:59:47;25.60;90.00
1179;DHT22;578;48.408;10.004;2022-09-06T11:02:28;25.50;90.80
1179;DHT22;578;48.408;10.004;2022-09-06T11:05:00;25.40;91.20
1179;DHT22;578;48.408;10.004;2022-09-06T11:07:29;25.40;91.20
1179;DHT22;578;48.408;10.004;2022-09-06T11:10:02;25.30;91.30
1179;DHT22;578;48.408;10.004;2022-09-06T11:12:36;25.40;91.80
1179;DHT22;578;48.408;10.004;2022-09-06T11:15:04;25.50;91.20
1179;DHT22;578;48.408;10.004;2022-09-06T11:17:35;25.40;91.00
1179;DHT22;578;48.408;10.004;2022-09-06T11:20:07;25.50;90.50
1179;DHT22;578;48.408;10.004;2022-09-06T11:25:57;25.50;92.20
1179;DHT22;578;48.408;10.004;2022-09-06T11:28:30;25.30;92.00
1179;DHT22;578;48.408;10.004;2022-09-06T11:30:59;25.20;92.60
1179;DHT22;578;48.408;10.004;2022-09-06T11:33:27;25.20;94.00
1179;DHT22;578;48.408;10.004;2022-09-06T11:36:17;25.10;94.20
1179;DHT22;578;48.408;10.004;2022-09-06T11:38:56;25.10;92.70
1179;DHT22;578;48.408;10.004;2022-09-06T11:41:29;25.00;91.70
1179;DHT22;578;48.408;10.004;2022-09-06T11:43:56;25.40;92.20
1179;DHT22;578;48.408;10.004;2022-09-06T11:46:56;25.80;91.20
1179;DHT22;578;48.408;10.004;2022-09-06T11:49:38;26.10;90.90
1179;DHT22;578;48.408;10.004;2022-09-06T11:55:23;25.80;91.90
1179;DHT22;578;48.408;10.004;2022-09-06T11:57:55;26.10;90.40
1179;DHT22;578;48.408;10.004;2022-09-06T12:00:24;26.30;88.90
1179;DHT22;578;48.408;10.004;2022-09-06T12:02:51;26.30;90.90
1179;DHT22;578;48.408;10.004;2022-09-06T12:05:22;26.20;90.90
1179;DHT22;578;48.408;10.004;2022-09-06T12:08:23;26.10;90.20
1179;DHT22;578;48.408;10.004;2022-09-06T12:10:57;25.90;91.00
1179;DHT22;578;48.408;10.004;2022-09-06T12:13:38;25.90;90.30
1179;DHT22;578;48.408;10.004;2022-09-06T12:16:06;25.70;92.00
1179;DHT22;578;48.408;10.004;2022-09-06T12:18:55;25.50;90.00
1179;DHT22;578;48.408;10.004;2022-09-06T12:21:35;25.50;87.80
1179;DHT22;578;48.408;10.004;2022-09-06T12:24:02;25.50;90.50
1179;DHT22;578;48.408;10.004;2022-09-06T12:26:46;25.40;90.00
1179;DHT22;578;48.408;10.004;2022-09-06T12:29:15;25.40;92.70
1179;DHT22;578;48.408;10.004;2022-09-06T12:31:43;25.50;91.60
1179;DHT22;578;48.408;10.004;2022-09-06T12:34:19;25.40;91.00
1179;DHT22;578;48.408;10.004;2022-09-06T12:36:53;25.30;92.30
1179;DHT22;578;48.408;10.004;2022-09-06T12:39:21;25.50;91.10
1179;DHT22;578;48.408;10.004;2022-09-06T12:41:49;25.50;91.10
1179;DHT22;578;48.408;10.004;2022-09-06T12:44:28;25.40;94.70
1179;DHT22;578;48.408;10.004;2022-09-06T12:46:58;25.50;94.40
1179;DHT22;578;48.408;10.004;2022-09-06T12:49:27;25.50;92.30
1179;DHT22;578;48.408;10.004;2022-09-06T12:52:05;25.60;89.90
1179;DHT22;578;48.408;10.004;2022-09-06T12:54:33;25.70;92.10
1179;DHT22;578;48.408;10.004;2022-09-06T12:57:16;25.60;92.40
1179;DHT22;578;48.408;10.004;2022-09-06T12:59:50;25.50;92.30
1179;DHT22;578;48.408;10.004;2022-09-06T13:02:21;25.60;92.80
1179;DHT22;578;48.408;10.004;2022-09-06T13:04:51;25.60;91.50
1179;DHT22;578;48.408;10.004;2022-09-06T13:07:22;25.60;91.50
1179;DHT22;578;48.408;10.004;2022-09-06T13:09:53;25.40;93.20
1179;DHT22;578;48.408;10.004;2022-09-06T13:12:25;25.30;95.20
1179;DHT22;578;48.408;10.004;2022-09-06T13:14:54;25.10;91.90
1179;DHT22;578;48.408;10.004;2022-09-06T13:17:23;25.10;91.90
1179;DHT22;578;48.408;10.004;2022-09-06T13:19:50;25.00;90.20
1179;DHT22;578;48.408;10.004;2022-09-06T13:25:24;25.10;95.10
1179;DHT22;578;48.408;10.004;2022-09-06T13:27:52;24.90;92.60
1179;DHT22;578;48.408;10.004;2022-09-06T13:30:32;25.10;91.50
1179;DHT22;578;48.408;10.004;2022-09-06T13:32:59;25.10;91.70
1179;DHT22;578;48.408;10.004;2022-09-06T13:35:29;25.00;92.70
1179;DHT22;578;48.408;10.004;2022-09-06T13:38:19;25.10;92.90
1179;DHT22;578;48.408;10.004;2022-09-06T13:40:46;25.00;95.50
1179;DHT22;578;48.408;10.004;2022-09-06T13:43:20;24.90;93.30
1179;DHT22;578;48.408;10.004;2022-09-06T13:46:02;25.00;93.40
1179;DHT22;578;48.408;10.004;2022-09-06T13:48:29;25.10;93.50
1179;DHT22;578;48.408;10.004;2022-09-06T13:50:56;25.10;94.20
1179;DHT22;578;48.408;10.004;2022-09-06T13:53:23;25.20;92.40
1179;DHT22;578;48.408;10.004;2022-09-06T13:55:51;25.20;92.60
1179;DHT22;578;48.408;10.004;2022-09-06T13:58:17;25.50;93.20
1179;DHT22;578;48.408;10.004;2022-09-06T14:00:44;25.30;90.60
1179;DHT22;578;48.408;10.004;2022-09-06T14:03:19;25.10;92.70
1179;DHT22;578;48.408;10.004;2022-09-06T14:05:47;25.10;92.60
1179;DHT22;578;48.408;10.004;2022-09-06T14:08:14;25.20;93.70
1179;DHT22;578;48.408;10.004;2022-09-06T14:10:40;25.10;95.00
1179;DHT22;578;48.408;10.004;2022-09-06T14:13:07;25.30;93.80
1179;DHT22;578;48.408;10.004;2022-09-06T14:15:35;25.30;93.80
1179;DHT22;578;48.408;10.004;2022-09-06T14:18:01;25.50;93.70
1179;DHT22;578;48.408;10.004;2022-09-06T14:20:29;25.50;92.10
1179;DHT22;578;48.408;10.004;2022-09-06T14:22:56;25.60;92.00
1179;DHT22;578;48.408;10.004;2022-09-06T14:25:23;25.60;92.00
1179;DHT22;578;48.408;10.004;2022-09-06T14:27:49;25.50;93.50
1179;DHT22;578;48.408;10.004;2022-09-06T14:30:16;25.20;94.00
1179;DHT22;578;48.408;10.004;2022-09-06T14:32:43;25.10;95.90
1179;DHT22;578;48.408;10.004;2022-09-06T14:35:10;25.10;92.20
1179;DHT22;578;48.408;10.004;2022-09-06T14:37:38;25.20;90.60
1179;DHT22;578;48.408;10.004;2022-09-06T14:40:06;25.00;93.60
1179;DHT22;578;48.408;10.004;2022-09-06T14:42:33;25.00;95.10
1179;DHT22;578;48.408;10.004;2022-09-06T14:44:59;25.10;93.40
1179;DHT22;578;48.408;10.004;2022-09-06T14:47:26;25.00;96.40
1179;DHT22;578;48.408;10.004;2022-09-06T14:49:53;25.10;93.80
1179;DHT22;578;48.408;10.004;2022-09-06T14:52:19;25.20;92.70
1179;DHT22;578;48.408;10.004;2022-09-06T14:54:47;25.10;92.40
1179;DHT22;578;48.408;10.004;2022-09-06T14:57:14;25.30;92.40
1179;DHT22;578;48.408;10.004;2022-09-06T14:59:41;25.20;93.90
1179;DHT22;578;48.408;10.004;2022-09-06T15:02:07;25.00;93.90
1179;DHT22;578;48.408;10.004;2022-09-06T15:04:34;25.10;94.60
1179;DHT22;578;48.408;10.004;2022-09-06T15:07:01;24.90;92.80
1179;DHT22;578;48.408;10.004;2022-09-06T15:09:28;24.80;94.80
1179;DHT22;578;48.408;10.004;2022-09-06T15:11:56;24.70;94.10
1179;DHT22;578;48.408;10.004;2022-09-06T15:14:24;24.70;94.40
1179;DHT22;578;48.408;10.004;2022-09-06T15:16:52;24.60;94.70
1179;DHT22;578;48.408;10.004;2022-09-06T15:19:21;24.60;95.10
1179;DHT22;578;48.408;10.004;2022-09-06T15:21:48;24.50;96.20
1179;DHT22;578;48.408;10.004;2022-09-06T15:24:15;24.40;95.00
1179;DHT22;578;48.408;10.004;2022-09-06T15:26:42;24.40;95.00
1179;DHT22;578;48.408;10.004;2022-09-06T15:29:11;24.40;95.90
1179;DHT22;578;48.408;10.004;2022-09-06T15:31:38;24.40;95.60
1179;DHT22;578;48.408;10.004;2022-09-06T15:34:06;24.30;95.20
1179;DHT22;578;48.408;10.004;2022-09-06T15:36:34;24.20;96.90
1179;DHT22;578;48.408;10.004;2022-09-06T15:39:02;24.60;94.70
1179;DHT22;578;48.408;10.004;2022-09-06T15:41:31;24.70;94.80
1179;DHT22;578;48.408;10.004;2022-09-06T15:44:00;24.90;93.10
1179;DHT22;578;48.408;10.004;2022-09-06T15:46:44;24.70;93.60
1179;DHT22;578;48.408;10.004;2022-09-06T15:49:13;24.60;94.70
1179;DHT22;578;48.408;10.004;2022-09-06T15:51:41;24.30;95.10
1179;DHT22;578;48.408;10.004;2022-09-06T15:54:09;24.30;94.80
1179;DHT22;578;48.408;10.004;2022-09-06T15:56:36;24.20;95.10
1179;DHT22;578;48.408;10.004;2022-09-06T15:59:02;24.20;95.40
1179;DHT22;578;48.408;10.004;2022-09-06T16:01:29;23.90;96.60
1179;DHT22;578;48.408;10.004;2022-09-06T16:04:00;23.70;98.40
1179;DHT22;578;48.408;10.004;2022-09-06T16:06:31;23.60;97.80
1179;DHT22;578;48.408;10.004;2022-09-06T16:09:00;23.50;97.50
1179;DHT22;578;48.408;10.004;2022-09-06T16:11:28;23.40;97.90
1179;DHT22;578;48.408;10.004;2022-09-06T16:13:57;23.50;99.80
1179;DHT22;578;48.408;10.004;2022-09-06T16:16:24;23.30;99.90
1179;DHT22;578;48.408;10.004;2022-09-06T16:18:50;23.30;98.70
1179;DHT22;578;48.408;10.004;2022-09-06T16:21:22;23.20;99.50
1179;DHT22;578;48.408;10.004;2022-09-06T16:23:50;23.20;98.80
1179;DHT22;578;48.408;10.004;2022-09-06T16:26:18;23.30;98.00
1179;DHT22;578;48.408;10.004;2022-09-06T16:28:47;23.30;98.30
1179;DHT22;578;48.408;10.004;2022-09-06T16:31:14;23.40;99.50
1179;DHT22;578;48.408;10.004;2022-09-06T16:33:41;23.30;99.90